Time;durP1;ratioP1;P1;durP2;ratioP2;P2;SDS_P1;SDS_P2;PMS_P1;PMS_P2;Temp;Humidity;BMP_temperature;BMP_pressure;BME280_temperature;BME280_humidity;BME280_pressure;Samples;Min_cycle;Max_cycle;Signal;HPM_P1;HPM_P2
2022/06/04 00:00:12;;;;;;;9.75;5.47;;;11.40;99.90;;;;;;5069250;28;20067;-82
2022/06/04 00:02:40;;;;;;;10.65;4.88;;;11.40;99.90;;;;;;5056739;28;20155;-83
2022/06/04 00:05:08;;;;;;;10.20;5.80;;;11.30;99.90;;;;;;5060983;28;20066;-84
2022/06/04 00:07:34;;;;;;;15.15;6.00;;;11.30;99.90;;;;;;5051388;28;20782;-84
2022/06/04 00:15:29;;;;;;;9.32;4.95;;;11.20;99.90;;;;;;5065255;28;20052;-83
2022/06/04 00:17:54;;;;;;;11.55;4.97;;;11.20;99.90;;;;;;5060722;28;20533;-85
2022/06/04 00:20:20;;;;;;;10.18;5.55;;;11.10;99.90;;;;;;5064182;28;20121;-84
2022/06/04 00:22:46;;;;;;;9.00;5.32;;;11.20;99.90;;;;;;5059256;28;20053;-83
2022/06/04 00:25:14;;;;;;;13.90;5.50;;;11.20;99.90;;;;;;5062377;28;20040;-84
2022/06/04 00:27:41;;;;;;;9.27;5.38;;;11.20;99.90;;;;;;5068456;28;20044;-84
2022/06/04 00:30:08;;;;;;;11.30;5.40;;;11.20;99.90;;;;;;5063385;28;20089;-82
2022/06/04 00:32:37;;;;;;;11.80;5.32;;;11.10;99.90;;;;;;5054407;28;20056;-84
2022/06/04 00:35:04;;;;;;;11.25;4.90;;;11.10;99.90;;;;;;5037198;28;20060;-83
2022/06/04 00:37:35;;;;;;;8.18;5.18;;;11.10;99.90;;;;;;5051902;28;20044;-82
2022/06/04 00:40:01;;;;;;;9.68;5.13;;;11.10;99.90;;;;;;5063582;28;20094;-84
2022/06/04 00:42:27;;;;;;;15.15;5.50;;;11.00;99.90;;;;;;5059276;28;20049;-84
2022/06/04 00:45:21;;;;;;;12.38;6.20;;;11.00;99.90;;;;;;5070024;28;20478;-83
2022/06/04 00:47:48;;;;;;;13.73;5.43;;;11.00;99.90;;;;;;5054067;28;20052;-81
2022/06/04 00:50:16;;;;;;;16.27;5.82;;;11.00;99.90;;;;;;5057207;28;20041;-82
2022/06/04 00:52:43;;;;;;;11.35;5.20;;;10.90;99.90;;;;;;5068246;28;20040;-81
2022/06/04 00:55:10;;;;;;;11.38;6.32;;;10.80;99.90;;;;;;5061381;28;20501;-87
2022/06/04 00:57:48;;;;;;;12.57;6.57;;;10.90;99.90;;;;;;5061100;28;20040;-82
2022/06/04 01:00:19;;;;;;;11.68;6.18;;;10.80;99.90;;;;;;5072682;28;20105;-85
2022/06/04 01:03:00;;;;;;;16.00;6.43;;;10.80;99.90;;;;;;5064676;28;20052;-83
2022/06/04 01:05:49;;;;;;;11.27;6.00;;;10.80;99.90;;;;;;5054287;28;20098;-82
2022/06/04 01:08:27;;;;;;;14.80;6.32;;;10.80;99.90;;;;;;5053855;28;20501;-84
2022/06/04 01:11:22;;;;;;;19.15;7.40;;;10.80;99.90;;;;;;5061277;28;20071;-82
2022/06/04 01:13:57;;;;;;;16.25;7.25;;;10.80;99.90;;;;;;5067374;28;20048;-83
2022/06/04 01:16:41;;;;;;;13.88;7.00;;;10.70;99.90;;;;;;5057579;28;20049;-84
2022/06/04 01:19:45;;;;;;;17.58;7.35;;;10.70;99.90;;;;;;5058077;28;20098;-84
2022/06/04 01:22:33;;;;;;;16.80;6.50;;;10.70;99.90;;;;;;5057474;28;20098;-83
2022/06/04 01:25:17;;;;;;;12.98;7.68;;;10.70;99.90;;;;;;5039754;28;20057;-83
2022/06/04 01:27:55;;;;;;;21.70;7.50;;;10.70;99.90;;;;;;5055540;28;20399;-82
2022/06/04 01:30:30;;;;;;;15.73;7.43;;;10.70;99.90;;;;;;5067514;28;20049;-84
2022/06/04 01:33:04;;;;;;;16.27;6.88;;;10.70;99.90;;;;;;5068011;28;20052;-87
2022/06/04 01:35:48;;;;;;;15.55;7.80;;;10.70;99.90;;;;;;5063275;28;20044;-84
2022/06/04 01:38:30;;;;;;;15.38;7.43;;;10.70;99.90;;;;;;5066768;28;20048;-83
2022/06/04 01:41:28;;;;;;;17.15;7.65;;;10.70;99.90;;;;;;5053655;28;20498;-83
2022/06/04 01:44:04;;;;;;;19.17;8.48;;;10.60;99.90;;;;;;4978416;28;20058;-85
2022/06/04 01:46:42;;;;;;;16.92;8.55;;;10.70;99.90;;;;;;5005053;28;20585;-85
2022/06/04 01:49:28;;;;;;;15.18;8.32;;;10.60;99.90;;;;;;4974305;28;20058;-84
2022/06/04 01:51:59;;;;;;;15.35;8.50;;;10.50;99.90;;;;;;4982180;28;20495;-83
2022/06/04 01:54:45;;;;;;;17.10;7.95;;;10.60;99.90;;;;;;4987650;28;20419;-82
2022/06/04 01:57:28;;;;;;;19.67;8.55;;;10.50;99.90;;;;;;4984929;28;20065;-83
2022/06/04 02:00:00;;;;;;;20.13;9.23;;;10.50;99.90;;;;;;4983280;28;20050;-87
2022/06/04 02:02:36;;;;;;;12.43;7.80;;;10.50;99.90;;;;;;5001527;28;20046;-82
2022/06/04 02:05:06;;;;;;;16.80;8.55;;;10.40;99.90;;;;;;4986938;28;20502;-84
2022/06/04 02:07:38;;;;;;;17.27;8.65;;;10.40;99.90;;;;;;4981417;28;20512;-86
2022/06/04 02:10:20;;;;;;;21.48;8.63;;;10.50;99.90;;;;;;4974054;28;20041;-84
2022/06/04 02:12:49;;;;;;;15.77;8.73;;;10.40;99.90;;;;;;4988716;28;20042;-83
2022/06/04 02:15:20;;;;;;;15.70;8.80;;;10.40;99.90;;;;;;4996640;28;20121;-84
2022/06/04 02:17:53;;;;;;;16.60;8.30;;;10.40;99.90;;;;;;4998125;28;20049;-84
2022/06/04 02:20:19;;;;;;;19.95;8.70;;;10.40;99.90;;;;;;5011388;28;20104;-81
2022/06/04 02:22:45;;;;;;;16.70;9.23;;;10.40;99.90;;;;;;5058733;28;20036;-83
2022/06/04 02:25:13;;;;;;;15.73;8.75;;;10.40;99.90;;;;;;5063191;28;20126;-86
2022/06/04 02:27:39;;;;;;;14.68;8.85;;;10.30;99.90;;;;;;5067437;28;20044;-83
2022/06/04 02:30:07;;;;;;;20.30;9.27;;;10.20;99.90;;;;;;5062754;28;20502;-83
2022/06/04 02:32:55;;;;;;;19.25;9.48;;;10.20;99.90;;;;;;5061463;28;20421;-84
2022/06/04 02:35:30;;;;;;;17.38;9.68;;;10.20;99.90;;;;;;5065560;28;20528;-84
2022/06/04 02:37:56;;;;;;;18.40;10.45;;;10.10;99.90;;;;;;5065787;28;20095;-83
2022/06/04 02:40:38;;;;;;;16.00;8.68;;;10.10;99.90;;;;;;5038289;28;21633;-84
2022/06/04 02:43:12;;;;;;;20.30;9.80;;;10.10;99.90;;;;;;5056636;28;20036;-84
2022/06/04 02:45:57;;;;;;;16.65;8.88;;;10.10;99.90;;;;;;5043898;28;20052;-83
2022/06/04 02:48:28;;;;;;;15.98;8.38;;;10.10;99.90;;;;;;5056040;28;20141;-84
2022/06/04 02:51:00;;;;;;;16.33;9.30;;;10.00;99.90;;;;;;5042496;28;20433;-83
2022/06/04 02:53:30;;;;;;;15.80;9.23;;;10.00;99.90;;;;;;5056805;28;20060;-82
2022/06/04 02:56:07;;;;;;;14.70;8.82;;;10.00;99.90;;;;;;5069221;28;20048;-81
2022/06/04 02:58:33;;;;;;;20.80;9.30;;;10.10;99.90;;;;;;5038221;28;20564;-84
2022/06/04 03:01:01;;;;;;;19.83;9.80;;;9.90;99.90;;;;;;5059448;28;20056;-83
2022/06/04 03:03:27;;;;;;;18.77;9.88;;;10.00;99.90;;;;;;5057166;28;20033;-83
2022/06/04 03:06:01;;;;;;;20.05;10.40;;;10.00;99.90;;;;;;5042171;28;20063;-82
2022/06/04 03:08:29;;;;;;;18.50;9.13;;;9.90;99.90;;;;;;5038624;28;20060;-82
2022/06/04 03:10:55;;;;;;;24.35;9.80;;;10.00;99.90;;;;;;5062846;28;20114;-83
2022/06/04 03:13:21;;;;;;;18.50;9.68;;;10.00;99.90;;;;;;5038108;28;20049;-82
2022/06/04 03:15:47;;;;;;;15.63;9.02;;;10.00;99.90;;;;;;5059380;28;20068;-84
2022/06/04 03:18:13;;;;;;;13.82;7.50;;;10.00;99.90;;;;;;5038556;28;20053;-81
2022/06/04 03:20:40;;;;;;;16.98;8.93;;;10.00;99.90;;;;;;5059296;28;20045;-82
2022/06/04 03:23:06;;;;;;;19.05;9.02;;;10.00;99.90;;;;;;5068422;28;20036;-83
2022/06/04 03:25:34;;;;;;;19.30;9.85;;;10.00;99.90;;;;;;5057167;28;20059;-85
2022/06/04 03:27:59;;;;;;;21.92;9.88;;;10.00;99.90;;;;;;5050984;28;20106;-84
2022/06/04 03:30:26;;;;;;;16.92;9.48;;;10.00;99.90;;;;;;5065211;28;20052;-84
2022/06/04 03:32:53;;;;;;;15.73;8.93;;;10.10;99.90;;;;;;5069327;28;20048;-83
2022/06/04 03:35:19;;;;;;;17.50;10.10;;;10.00;99.90;;;;;;5063002;28;20064;-86
2022/06/04 03:37:45;;;;;;;15.02;8.73;;;9.90;99.90;;;;;;5034543;28;20057;-80
2022/06/04 03:40:11;;;;;;;15.25;9.75;;;9.90;99.90;;;;;;5053237;28;20045;-82
2022/06/04 03:42:37;;;;;;;17.77;10.30;;;10.00;99.90;;;;;;5066029;28;20045;-83
2022/06/04 03:45:05;;;;;;;23.42;10.05;;;10.00;99.90;;;;;;5069729;28;20051;-83
2022/06/04 03:47:36;;;;;;;22.27;10.10;;;10.00;99.90;;;;;;5063295;28;20033;-83
2022/06/04 03:50:06;;;;;;;;;;;10.10;99.90;;;;;;5044779;28;20158;-82
2022/06/04 03:52:31;;;;;;;14.07;7.72;;;10.00;99.90;;;;;;5060250;28;19927;-82
2022/06/04 03:54:57;;;;;;;19.45;9.80;;;10.10;99.90;;;;;;5054755;28;20504;-83
2022/06/04 03:57:38;;;;;;;18.92;9.23;;;10.10;99.90;;;;;;5057177;28;20048;-82
2022/06/04 04:00:14;;;;;;;15.35;9.65;;;10.10;99.90;;;;;;5067057;28;20086;-80
2022/06/04 04:02:42;;;;;;;21.50;10.48;;;10.10;99.90;;;;;;5071094;28;20044;-81
2022/06/04 04:05:11;;;;;;;19.83;9.32;;;10.20;99.90;;;;;;5042873;28;20044;-83
2022/06/04 04:07:37;;;;;;;25.52;11.25;;;10.20;99.90;;;;;;5073345;28;20045;-81
2022/06/04 04:10:05;;;;;;;16.08;9.93;;;10.20;99.90;;;;;;5060092;28;20044;-82
2022/06/04 04:12:31;;;;;;;21.20;10.27;;;10.20;99.90;;;;;;5066992;28;20041;-84
2022/06/04 04:14:57;;;;;;;18.02;9.40;;;10.30;99.90;;;;;;5059761;28;20102;-81
2022/06/04 04:17:23;;;;;;;15.25;9.52;;;10.30;99.90;;;;;;5066269;28;20056;-83
2022/06/04 04:19:49;;;;;;;15.90;8.95;;;10.40;99.90;;;;;;5061661;28;20057;-85
2022/06/04 04:22:15;;;;;;;22.25;9.70;;;10.40;99.90;;;;;;5060815;28;20804;-83
2022/06/04 04:24:41;;;;;;;17.15;8.50;;;10.40;99.90;;;;;;5064832;28;20036;-80
2022/06/04 04:27:07;;;;;;;13.75;8.52;;;10.40;99.90;;;;;;5053511;28;20041;-83
2022/06/04 04:29:33;;;;;;;14.57;8.07;;;10.50;99.90;;;;;;5055199;28;20081;-83
2022/06/04 04:31:58;;;;;;;14.93;7.97;;;10.50;99.90;;;;;;5069260;28;20048;-81
2022/06/04 04:34:24;;;;;;;14.45;7.97;;;10.50;99.90;;;;;;5064997;28;20037;-82
2022/06/04 04:36:50;;;;;;;18.38;7.68;;;10.60;99.90;;;;;;5053959;28;20072;-82
2022/06/04 04:39:15;;;;;;;14.48;7.60;;;10.60;99.90;;;;;;5066403;28;20036;-82
2022/06/04 04:41:41;;;;;;;11.73;6.80;;;10.70;99.90;;;;;;5069634;28;20401;-80
2022/06/04 04:44:07;;;;;;;14.30;7.13;;;10.80;99.90;;;;;;5070809;28;20040;-81
2022/06/04 04:46:33;;;;;;;16.17;7.72;;;10.80;99.90;;;;;;5072561;28;20083;-81
2022/06/04 04:48:59;;;;;;;12.00;6.65;;;10.80;99.90;;;;;;5071630;28;20068;-87
2022/06/04 04:51:26;;;;;;;11.60;6.43;;;10.90;99.90;;;;;;5068673;28;20040;-83
2022/06/04 04:53:53;;;;;;;13.10;6.93;;;11.00;99.90;;;;;;5060415;28;20044;-82
2022/06/04 04:56:22;;;;;;;11.90;6.43;;;11.10;99.90;;;;;;5057874;28;20068;-83
2022/06/04 04:58:48;;;;;;;15.63;7.22;;;11.20;99.90;;;;;;5068788;28;20045;-83
2022/06/04 05:01:28;;;;;;;18.33;7.30;;;11.30;99.90;;;;;;5056390;28;20045;-83
2022/06/04 05:03:55;;;;;;;13.23;6.63;;;11.50;99.90;;;;;;5068850;28;20048;-83
2022/06/04 05:06:20;;;;;;;11.63;6.72;;;11.70;99.90;;;;;;5071179;28;20569;-83
2022/06/04 05:08:48;;;;;;;12.43;5.70;;;11.80;99.90;;;;;;5054573;28;20115;-80
2022/06/04 05:11:19;;;;;;;9.50;6.05;;;11.80;99.90;;;;;;5062320;28;20052;-84
2022/06/04 05:13:49;;;;;;;11.80;5.55;;;11.90;99.90;;;;;;5065826;28;20040;-83
2022/06/04 05:16:23;;;;;;;12.63;6.00;;;11.90;99.90;;;;;;5071187;28;20055;-83
2022/06/04 05:18:49;;;;;;;11.45;5.85;;;11.90;99.90;;;;;;5055360;28;20147;-82
2022/06/04 05:21:35;;;;;;;10.30;5.93;;;11.90;99.90;;;;;;5053161;28;20529;-83
2022/06/04 05:24:00;;;;;;;11.30;5.72;;;12.00;99.90;;;;;;5056157;28;20375;-81
2022/06/04 05:26:26;;;;;;;8.73;4.65;;;12.00;99.90;;;;;;5069427;28;20043;-82
2022/06/04 05:28:53;;;;;;;9.57;5.15;;;12.30;99.90;;;;;;5053765;28;20049;-82
2022/06/04 05:31:20;;;;;;;13.88;5.97;;;12.20;99.90;;;;;;5066267;28;20053;-82
2022/06/04 05:33:46;;;;;;;9.52;5.25;;;12.10;99.90;;;;;;5061305;28;20063;-82
2022/06/04 05:36:13;;;;;;;12.13;5.70;;;12.20;99.90;;;;;;5054208;28;20041;-81
2022/06/04 05:38:40;;;;;;;9.07;5.22;;;12.10;99.90;;;;;;5064283;28;20045;-84
2022/06/04 05:41:13;;;;;;;12.45;5.60;;;12.10;99.90;;;;;;5071303;28;20131;-83
2022/06/04 05:43:41;;;;;;;9.48;4.88;;;12.10;99.90;;;;;;5056834;28;20117;-82
2022/06/04 05:46:10;;;;;;;11.43;4.97;;;12.20;99.90;;;;;;5072944;28;20052;-83
2022/06/04 05:48:40;;;;;;;10.35;5.50;;;12.30;99.90;;;;;;5072813;28;20045;-82
2022/06/04 05:51:08;;;;;;;10.27;5.10;;;12.30;99.90;;;;;;5073770;28;20084;-84
2022/06/04 05:53:34;;;;;;;9.65;4.82;;;12.60;99.90;;;;;;5057495;28;20045;-84
2022/06/04 05:56:00;;;;;;;12.07;5.35;;;12.70;99.90;;;;;;5074196;28;20451;-82
2022/06/04 05:58:25;;;;;;;9.90;4.95;;;12.90;99.90;;;;;;5057109;28;20061;-82
2022/06/04 06:00:59;;;;;;;11.18;4.55;;;13.10;99.90;;;;;;5075187;28;20052;-83
2022/06/04 06:03:24;;;;;;;10.13;5.07;;;13.20;99.90;;;;;;5075754;28;20045;-83
2022/06/04 06:05:50;;;;;;;7.05;4.30;;;13.30;99.90;;;;;;5073438;28;20612;-88
2022/06/04 06:08:15;;;;;;;9.57;4.55;;;13.30;99.90;;;;;;5072692;28;20052;-82
2022/06/04 06:10:43;;;;;;;7.60;4.43;;;13.30;99.90;;;;;;5075342;28;20049;-82
2022/06/04 06:13:10;;;;;;;9.20;4.75;;;13.30;99.90;;;;;;5075585;28;20048;-82
2022/06/04 06:15:36;;;;;;;9.40;5.07;;;13.30;99.90;;;;;;5075267;28;20087;-82
2022/06/04 06:18:03;;;;;;;8.90;4.65;;;13.40;99.90;;;;;;5075565;28;20044;-84
2022/06/04 06:20:30;;;;;;;9.05;4.55;;;13.40;99.90;;;;;;5057614;28;20064;-83
2022/06/04 06:22:56;;;;;;;9.77;4.78;;;13.50;99.90;;;;;;5073872;28;20124;-83
2022/06/04 06:25:21;;;;;;;8.45;4.60;;;13.60;99.90;;;;;;5073554;28;20290;-83
2022/06/04 06:27:47;;;;;;;7.72;4.68;;;13.60;99.90;;;;;;5073142;28;20131;-82
2022/06/04 06:30:13;;;;;;;10.45;4.28;;;13.70;99.90;;;;;;5071703;28;20056;-82
2022/06/04 06:32:40;;;;;;;8.65;4.40;;;13.80;99.90;;;;;;5073041;28;20127;-84
2022/06/04 06:35:06;;;;;;;10.48;4.05;;;13.90;99.90;;;;;;5071711;28;20090;-84
2022/06/04 06:37:32;;;;;;;7.53;3.75;;;14.00;99.90;;;;;;5071890;28;20465;-87
2022/06/04 06:39:58;;;;;;;7.88;4.22;;;14.20;99.90;;;;;;5055717;28;20044;-84
2022/06/04 06:42:24;;;;;;;7.75;3.78;;;14.50;99.90;;;;;;5055453;28;20091;-82
2022/06/04 06:44:49;;;;;;;5.90;3.90;;;15.20;99.90;;;;;;5073028;28;20048;-82
2022/06/04 06:47:15;;;;;;;7.68;3.95;;;16.00;99.90;;;;;;5072900;28;20044;-82
2022/06/04 06:49:41;;;;;;;6.47;3.53;;;16.60;99.90;;;;;;5054988;28;20037;-83
2022/06/04 06:52:08;;;;;;;5.40;3.45;;;17.10;99.90;;;;;;5071869;28;20051;-83
2022/06/04 06:54:36;;;;;;;6.80;3.55;;;17.60;99.90;;;;;;5071898;28;20378;-82
2022/06/04 06:57:04;;;;;;;6.55;3.67;;;18.00;99.90;;;;;;5072815;28;20137;-82
2022/06/04 06:59:30;;;;;;;7.40;3.30;;;18.40;99.90;;;;;;5072045;28;20116;-83
2022/06/04 07:01:58;;;;;;;5.40;2.97;;;18.70;99.90;;;;;;5071816;28;20057;-82
2022/06/04 07:04:27;;;;;;;5.55;3.17;;;19.10;99.90;;;;;;5071307;28;20044;-84
2022/06/04 07:06:57;;;;;;;5.40;3.15;;;19.30;99.90;;;;;;5071396;28;20091;-84
2022/06/04 07:09:28;;;;;;;4.78;3.10;;;19.50;99.90;;;;;;5071643;28;20095;-85
2022/06/04 07:11:54;;;;;;;5.95;2.92;;;19.80;99.90;;;;;;5054934;28;20060;-85
2022/06/04 07:14:22;;;;;;;5.65;2.88;;;20.00;99.90;;;;;;5071402;28;20048;-84
2022/06/04 07:16:49;;;;;;;6.05;2.80;;;20.30;99.90;;;;;;5071993;28;20127;-82
2022/06/04 07:19:16;;;;;;;3.75;2.47;;;20.50;99.90;;;;;;5071314;28;20485;-84
2022/06/04 07:21:43;;;;;;;4.20;2.80;;;20.60;99.90;;;;;;5075113;28;20110;-84
2022/06/04 07:24:09;;;;;;;4.68;2.47;;;21.00;99.90;;;;;;5075664;28;20132;-87
2022/06/04 07:26:35;;;;;;;8.25;3.00;;;21.30;99.90;;;;;;5075477;28;20110;-84
2022/06/04 07:29:02;;;;;;;4.70;2.65;;;21.80;96.30;;;;;;5058859;28;20057;-83
2022/06/04 07:31:29;;;;;;;4.35;2.40;;;22.20;93.10;;;;;;5077208;28;20072;-84
2022/06/04 07:33:56;;;;;;;4.70;2.30;;;22.50;88.80;;;;;;5076500;28;20055;-85
2022/06/04 07:36:29;;;;;;;3.88;2.38;;;22.80;84.10;;;;;;5059344;28;20086;-84
2022/06/04 07:38:55;;;;;;;5.50;2.58;;;23.10;75.00;;;;;;5076676;28;20546;-83
2022/06/04 07:41:34;;;;;;;6.50;2.55;;;23.20;74.70;;;;;;5076295;28;20076;-84
2022/06/04 07:44:00;;;;;;;4.88;2.55;;;23.20;73.20;;;;;;5075477;28;20119;-83
2022/06/04 07:46:28;;;;;;;4.18;2.55;;;23.30;73.90;;;;;;5076517;28;20047;-85
2022/06/04 07:49:00;;;;;;;3.17;2.70;;;23.40;72.10;;;;;;5075152;28;20422;-83
2022/06/04 07:51:26;;;;;;;3.67;2.38;;;23.50;69.10;;;;;;5076393;28;20048;-83
2022/06/04 07:53:52;;;;;;;4.85;2.58;;;23.60;68.20;;;;;;5076146;28;20083;-83
2022/06/04 07:56:19;;;;;;;3.75;2.55;;;23.80;66.40;;;;;;5075473;28;20498;-83
2022/06/04 07:58:45;;;;;;;5.75;2.80;;;23.90;64.30;;;;;;5075616;28;20474;-84
2022/06/04 08:01:15;;;;;;;6.20;2.00;;;23.80;63.80;;;;;;5075058;28;20048;-84
2022/06/04 08:03:43;;;;;;;6.50;3.08;;;23.70;63.20;;;;;;5076305;28;20518;-86
2022/06/04 08:06:10;;;;;;;5.75;2.70;;;23.40;66.30;;;;;;5074994;28;20046;-85
2022/06/04 08:08:36;;;;;;;6.82;2.65;;;23.30;66.10;;;;;;5074927;28;20058;-84
2022/06/04 08:11:30;;;;;;;6.18;2.42;;;23.00;67.50;;;;;;5074868;28;20041;-91
2022/06/04 08:13:49;;;;;;;4.07;2.63;;;23.10;67.60;;;;;;5074543;28;20056;-84
2022/06/04 08:16:16;;;;;;;4.20;2.80;;;23.20;66.50;;;;;;5075536;28;20044;-82
2022/06/04 08:18:41;;;;;;;5.05;2.60;;;23.10;66.90;;;;;;5075849;28;20053;-86
2022/06/04 08:21:07;;;;;;;4.93;3.00;;;23.40;64.70;;;;;;5074730;28;20458;-84
2022/06/04 08:23:33;;;;;;;3.88;2.45;;;23.80;63.30;;;;;;5075556;28;20056;-86
2022/06/04 08:25:59;;;;;;;6.05;2.78;;;24.20;61.90;;;;;;5075999;28;20083;-83
2022/06/04 08:28:25;;;;;;;9.48;3.03;;;24.60;60.50;;;;;;5074535;28;20045;-84
2022/06/04 08:31:02;;;;;;;5.47;3.10;;;24.60;59.90;;;;;;5073605;28;20064;-87
2022/06/04 08:33:28;;;;;;;6.82;2.72;;;24.30;59.70;;;;;;5074298;28;20048;-91
2022/06/04 08:35:54;;;;;;;5.25;2.70;;;24.10;61.00;;;;;;5074481;28;20055;-86
2022/06/04 08:38:19;;;;;;;6.07;3.30;;;23.90;60.80;;;;;;5074292;28;20478;-85
2022/06/04 08:40:53;;;;;;;4.95;3.40;;;23.70;62.20;;;;;;5074528;28;20048;-85
2022/06/04 08:43:31;;;;;;;4.85;3.38;;;23.70;62.10;;;;;;5075644;28;20559;-83
2022/06/04 08:45:58;;;;;;;4.10;2.70;;;23.70;60.50;;;;;;5067034;28;20044;-84
2022/06/04 08:48:34;;;;;;;6.57;3.30;;;23.50;63.00;;;;;;5080445;28;20086;-85
2022/06/04 08:51:00;;;;;;;5.10;3.00;;;23.70;64.90;;;;;;5074188;28;20101;-84
2022/06/04 08:53:28;;;;;;;4.78;3.03;;;24.00;63.40;;;;;;5075367;28;20409;-83
2022/06/04 08:59:01;;;;;;;4.53;3.55;;;24.90;61.20;;;;;;5074326;28;20063;-85
2022/06/04 09:01:32;;;;;;;7.97;3.33;;;25.70;58.20;;;;;;5057351;28;20482;-85
2022/06/04 09:04:16;;;;;;;5.25;2.80;;;26.70;56.10;;;;;;5074025;28;20375;-86
2022/06/04 09:07:12;;;;;;;4.50;2.80;;;27.60;53.40;;;;;;5073873;28;20131;-81
2022/06/04 09:09:52;;;;;;;4.43;2.80;;;28.10;51.50;;;;;;5056856;28;20383;-83
2022/06/04 09:12:45;;;;;;;5.18;3.20;;;28.30;50.00;;;;;;5074743;28;20059;-86
2022/06/04 09:15:39;;;;;;;7.15;3.28;;;28.30;49.20;;;;;;5066248;28;20053;-83
2022/06/04 09:18:13;;;;;;;4.72;3.20;;;28.10;49.90;;;;;;5071428;28;20410;-86
2022/06/04 09:20:53;;;;;;;4.57;2.90;;;28.00;50.30;;;;;;5073640;28;20056;-86
2022/06/04 09:23:30;;;;;;;3.47;2.60;;;27.90;50.20;;;;;;5074761;28;20047;-84
2022/06/04 09:26:14;;;;;;;4.85;3.17;;;27.90;50.20;;;;;;5073756;28;20040;-85
2022/06/04 09:28:45;;;;;;;5.57;3.55;;;28.10;49.50;;;;;;5074514;28;20401;-81
2022/06/04 09:31:47;;;;;;;3.95;3.28;;;28.30;49.40;;;;;;5078269;28;20049;-81
2022/06/04 09:34:50;;;;;;;3.47;2.70;;;28.50;48.80;;;;;;5035848;28;20458;-85
2022/06/04 09:37:16;;;;;;;4.40;3.03;;;28.40;48.30;;;;;;4958241;28;20609;-85
2022/06/04 09:39:45;;;;;;;6.68;2.80;;;28.80;47.90;;;;;;4974167;28;20054;-84
2022/06/04 09:42:14;;;;;;;5.13;3.03;;;29.20;47.50;;;;;;4957688;28;20496;-85
2022/06/04 09:45:01;;;;;;;3.92;3.28;;;29.60;47.50;;;;;;4973383;28;20055;-82
2022/06/04 09:47:29;;;;;;;4.97;3.15;;;29.80;45.50;;;;;;4958105;28;20073;-88
2022/06/04 09:50:00;;;;;;;4.40;2.80;;;29.00;46.40;;;;;;4974128;28;20496;-84
2022/06/04 09:52:34;;;;;;;6.22;2.90;;;28.00;46.80;;;;;;4973553;28;20066;-83
2022/06/04 09:55:21;;;;;;;3.70;3.05;;;27.10;47.30;;;;;;4957704;28;20102;-85
2022/06/04 09:58:05;;;;;;;3.97;2.85;;;26.30;49.20;;;;;;4973615;28;20402;-83
2022/06/04 10:00:39;;;;;;;4.80;2.70;;;25.90;50.20;;;;;;4957185;28;20370;-86
2022/06/04 10:03:17;;;;;;;5.22;3.45;;;25.80;51.70;;;;;;4972859;28;20404;-85
2022/06/04 10:05:52;;;;;;;5.43;3.30;;;25.90;52.60;;;;;;4972591;28;20069;-83
2022/06/04 10:08:25;;;;;;;5.78;3.22;;;26.50;53.20;;;;;;4972848;28;20066;-85
2022/06/04 10:11:04;;;;;;;4.38;2.60;;;27.20;51.40;;;;;;5011998;28;20177;-85
2022/06/04 10:13:45;;;;;;;6.15;3.45;;;27.80;51.00;;;;;;5071630;28;20490;-82
2022/06/04 10:16:15;;;;;;;6.07;3.22;;;28.30;49.30;;;;;;5072678;28;20506;-85
2022/06/04 10:18:59;;;;;;;5.75;3.30;;;28.60;48.80;;;;;;5055640;28;20055;-82
2022/06/04 10:21:46;;;;;;;3.65;3.08;;;29.10;47.80;;;;;;5073331;28;20040;-83
2022/06/04 10:24:18;;;;;;;4.45;3.25;;;29.50;45.90;;;;;;5072031;28;20040;-83
2022/06/04 10:27:29;;;;;;;7.70;3.58;;;29.60;45.80;;;;;;5073429;28;20036;-85
2022/06/04 10:30:28;;;;;;;6.05;3.20;;;29.90;45.40;;;;;;5071911;28;20055;-91
2022/06/04 10:32:59;;;;;;;;;;;30.10;45.20;;;;;;5073798;28;20040;-85
2022/06/04 10:35:50;;;;;;;4.30;3.25;;;30.60;44.90;;;;;;5073140;28;20448;-84
2022/06/04 10:38:23;;;;;;;4.75;3.45;;;31.00;44.70;;;;;;5073046;28;20486;-83
2022/06/04 10:41:14;;;;;;;4.88;3.63;;;30.80;44.10;;;;;;5071710;28;20525;-83
2022/06/04 10:44:01;;;;;;;4.57;3.25;;;30.60;44.40;;;;;;5072072;28;20040;-83
2022/06/04 10:46:45;;;;;;;3.40;3.10;;;30.30;45.10;;;;;;5072174;28;20040;-86
2022/06/04 10:49:26;;;;;;;5.57;2.80;;;29.90;45.40;;;;;;5071621;28;20037;-87
2022/06/04 10:52:26;;;;;;;4.72;3.03;;;29.50;46.30;;;;;;5072151;28;20097;-81
2022/06/04 10:55:31;;;;;;;4.70;3.38;;;29.40;46.50;;;;;;5072133;28;20040;-83
2022/06/04 10:58:15;;;;;;;4.43;3.35;;;29.40;46.80;;;;;;5054429;28;20048;-86
2022/06/04 11:00:48;;;;;;;4.30;3.10;;;29.40;46.60;;;;;;5071940;28;20129;-86
2022/06/04 11:03:32;;;;;;;5.95;3.20;;;29.40;47.70;;;;;;5053374;28;20044;-86
2022/06/04 11:06:05;;;;;;;4.50;3.45;;;29.70;47.80;;;;;;5072420;28;20048;-84
2022/06/04 11:08:38;;;;;;;7.55;3.70;;;29.70;46.50;;;;;;5072511;28;20117;-85
2022/06/04 11:11:14;;;;;;;4.68;3.20;;;29.60;46.30;;;;;;5072425;28;20044;-84
2022/06/04 11:13:49;;;;;;;5.07;3.30;;;29.70;46.00;;;;;;5071416;28;20060;-86
2022/06/04 11:16:26;;;;;;;5.75;3.05;;;30.10;45.20;;;;;;5072652;28;20048;-85
2022/06/04 11:19:04;;;;;;;5.97;3.05;;;30.30;45.20;;;;;;5070937;28;20449;-85
2022/06/04 11:21:55;;;;;;;5.97;3.40;;;30.70;44.90;;;;;;5072289;28;20145;-86
2022/06/04 11:24:29;;;;;;;6.15;2.97;;;31.10;43.70;;;;;;5013294;28;20548;-86
2022/06/04 11:27:07;;;;;;;5.95;2.88;;;31.30;43.70;;;;;;4997070;28;20107;-84
2022/06/04 11:29:35;;;;;;;4.82;3.10;;;31.10;43.50;;;;;;5029891;28;20085;-84
2022/06/04 11:32:26;;;;;;;3.53;2.47;;;30.70;44.10;;;;;;5029555;28;20049;-84
2022/06/04 11:35:12;;;;;;;3.70;3.05;;;31.00;43.50;;;;;;5014116;28;20041;-84
2022/06/04 11:37:55;;;;;;;2.90;2.47;;;31.50;42.80;;;;;;5013588;28;20390;-82
2022/06/04 11:40:27;;;;;;;3.15;2.78;;;31.50;41.20;;;;;;4997370;28;20433;-86
2022/06/04 11:43:00;;;;;;;2.97;2.60;;;31.10;42.80;;;;;;5013578;28;20092;-85
2022/06/04 11:46:00;;;;;;;3.97;2.20;;;30.70;42.30;;;;;;5013919;28;20378;-89
2022/06/04 11:48:46;;;;;;;3.38;2.22;;;30.60;42.60;;;;;;5014081;28;20565;-84
2022/06/04 11:51:31;;;;;;;4.05;2.83;;;30.70;43.50;;;;;;5014059;28;20049;-84
2022/06/04 11:54:00;;;;;;;4.55;2.80;;;31.00;42.20;;;;;;5013967;28;20037;-83
2022/06/04 11:57:00;;;;;;;5.22;2.67;;;30.90;42.70;;;;;;5013828;28;20069;-83
2022/06/04 11:59:40;;;;;;;3.92;2.30;;;30.70;42.40;;;;;;4938308;29;20619;-82
2022/06/04 12:02:27;;;;;;;3.35;2.33;;;31.10;42.30;;;;;;4968638;28;20064;-84
2022/06/04 12:05:29;;;;;;;3.95;2.58;;;31.00;41.90;;;;;;4961116;28;20069;-84
2022/06/04 12:07:56;;;;;;;3.17;2.42;;;31.20;41.50;;;;;;4978266;28;20042;-84
2022/06/04 12:10:44;;;;;;;3.22;2.70;;;31.20;42.50;;;;;;4994533;28;20058;-86
2022/06/04 12:13:43;;;;;;;3.25;2.33;;;31.70;40.90;;;;;;4962454;28;20042;-85
2022/06/04 12:16:28;;;;;;;18.77;6.57;;;31.70;40.50;;;;;;4978742;28;20062;-84
2022/06/04 12:24:15;;;;;;;4.68;2.13;;;32.10;40.70;;;;;;4978777;28;20047;-87
2022/06/04 12:25:09;;;;;;;6.90;2.75;;;32.80;39.50;;;;;;4978562;28;20046;-86
2022/06/04 12:27:38;;;;;;;19.07;9.67;;;33.00;39.70;;;;;;4978252;28;20053;-85
2022/06/04 12:30:16;;;;;;;6.53;3.08;;;32.50;39.60;;;;;;4977698;28;20165;-87
2022/06/04 12:32:44;;;;;;;3.65;2.42;;;31.30;40.00;;;;;;4995433;28;20488;-86
2022/06/04 12:35:09;;;;;;;4.88;2.70;;;30.30;41.40;;;;;;4977306;28;20103;-88
2022/06/04 12:37:39;;;;;;;4.68;2.50;;;30.00;42.10;;;;;;5055551;28;20033;-89
2022/06/04 12:40:32;;;;;;;3.53;2.57;;;30.20;42.80;;;;;;5055711;28;20102;-86
2022/06/04 12:43:15;;;;;;;18.75;6.93;;;30.50;43.10;;;;;;5055241;28;20045;-90
2022/06/04 12:45:42;;;;;;;2.92;2.40;;;30.60;43.00;;;;;;5070380;28;20033;-88
2022/06/04 12:48:32;;;;;;;3.08;2.30;;;30.60;42.30;;;;;;5066162;28;20072;-85
2022/06/04 12:51:05;;;;;;;5.15;2.05;;;30.40;42.20;;;;;;5056875;28;20037;-88
2022/06/04 12:53:35;;;;;;;6.38;1.90;;;29.90;42.20;;;;;;5038088;28;20064;-87
2022/06/04 12:56:04;;;;;;;;;;;29.30;43.70;;;;;;5055450;28;20037;-87
2022/06/04 12:58:48;;;;;;;3.00;2.00;;;28.80;44.60;;;;;;5038311;28;20009;-88
2022/06/04 13:01:16;;;;;;;7.03;2.10;;;28.30;44.70;;;;;;5055439;28;20432;-85
2022/06/04 13:03:45;;;;;;;2.55;2.03;;;28.00;45.50;;;;;;5054578;28;20048;-85
2022/06/04 13:06:20;;;;;;;3.03;2.22;;;27.80;45.70;;;;;;5057380;28;20048;-85
2022/06/04 13:09:01;;;;;;;5.60;2.00;;;27.40;46.10;;;;;;5042090;28;20133;-87
2022/06/04 13:11:38;;;;;;;3.80;2.33;;;27.10;47.20;;;;;;5040449;28;20045;-86
2022/06/04 13:14:14;;;;;;;5.03;2.22;;;27.00;48.60;;;;;;5056214;28;20486;-88
2022/06/04 13:16:49;;;;;;;4.50;2.10;;;26.90;47.70;;;;;;5056111;28;20037;-87
2022/06/04 13:19:40;;;;;;;3.50;2.50;;;26.80;48.90;;;;;;5054549;28;20447;-84
2022/06/04 13:22:13;;;;;;;;;;;26.80;49.70;;;;;;5055291;28;20099;-85
2022/06/04 13:24:39;;;;;;;3.70;2.25;;;26.80;49.50;;;;;;5054551;28;19924;-84